createdAt,value
2022-10-17T00:00:11.052Z,81.40
2022-10-17T00:02:44.438Z,81.48
2022-10-17T00:05:17.781Z,81.61
2022-10-17T00:07:50.947Z,81.64
2022-10-17T00:10:24.855Z,81.58
2022-10-17T00:12:57.696Z,81.51
2022-10-17T00:15:31.412Z,81.55
2022-10-17T00:18:05.709Z,81.52
2022-10-17T00:20:40.356Z,81.47
2022-10-17T00:23:14.217Z,81.51
2022-10-17T00:25:49.062Z,81.66
2022-10-17T00:28:21.910Z,81.60
2022-10-17T00:31:03.290Z,81.60
2022-10-17T00:33:37.290Z,81.51
2022-10-17T00:36:15.220Z,81.46
2022-10-17T00:38:51.484Z,81.43
2022-10-17T00:41:29.085Z,81.43
2022-10-17T00:44:28.796Z,81.46
2022-10-17T00:47:07.464Z,81.44
2022-10-17T00:49:41.398Z,81.36
2022-10-17T00:52:21.553Z,81.31
2022-10-17T00:55:02.036Z,81.24
2022-10-17T00:57:35.260Z,81.20
2022-10-17T01:00:11.524Z,81.18
2022-10-17T01:02:45.765Z,81.16
2022-10-17T01:05:19.267Z,81.18
2022-10-17T01:07:53.611Z,81.18
2022-10-17T01:10:32.709Z,81.07
2022-10-17T01:13:18.849Z,80.98
2022-10-17T01:16:09.789Z,80.99
2022-10-17T01:18:57.149Z,80.96
2022-10-17T01:21:52.900Z,81.00
2022-10-17T01:25:01.731Z,81.00
2022-10-17T01:27:40.373Z,81.03
2022-10-17T01:31:04.602Z,80.92
2022-10-17T01:34:12.964Z,80.89
2022-10-17T01:37:09.131Z,80.87
2022-10-17T01:39:52.472Z,80.86
2022-10-17T01:42:30.732Z,80.92
2022-10-17T01:45:19.748Z,80.94
2022-10-17T01:47:54.864Z,80.93
2022-10-17T01:50:39.514Z,80.91
2022-10-17T01:53:23.760Z,80.85
2022-10-17T01:55:58.813Z,80.88
2022-10-17T01:58:48.372Z,80.92
2022-10-17T02:01:23.595Z,81.01
2022-10-17T02:03:59.208Z,81.05
2022-10-17T02:06:38.459Z,81.02
2022-10-17T02:09:28.561Z,81.02
2022-10-17T02:12:25.277Z,81.00
2022-10-17T02:15:37.895Z,80.95
2022-10-17T02:18:35.376Z,81.08
2022-10-17T02:21:40.912Z,81.12
2022-10-17T02:24:38.062Z,81.04
2022-10-17T02:27:52.041Z,81.08
2022-10-17T02:30:56.739Z,81.09
2022-10-17T02:33:34.872Z,81.14
2022-10-17T02:36:12.822Z,81.23
2022-10-17T02:38:47.741Z,81.29
2022-10-17T02:41:21.747Z,81.31
2022-10-17T02:43:58.784Z,81.31
2022-10-17T02:46:31.359Z,81.31
2022-10-17T02:49:20.678Z,81.25
2022-10-17T02:52:07.055Z,81.23
2022-10-17T02:55:02.212Z,81.37
2022-10-17T02:57:45.642Z,81.44
2022-10-17T03:00:19.755Z,81.50
2022-10-17T03:02:52.918Z,81.55
2022-10-17T03:05:30.867Z,81.58
2022-10-17T03:08:04.457Z,81.55
2022-10-17T03:10:37.946Z,81.57
2022-10-17T03:13:11.563Z,81.61
2022-10-17T03:15:45.969Z,81.65
2022-10-17T03:18:19.577Z,81.72
2022-10-17T03:20:53.477Z,81.84
2022-10-17T03:23:26.664Z,81.83
2022-10-17T03:26:02.312Z,81.79
2022-10-17T03:28:36.003Z,81.82
2022-10-17T03:31:11.322Z,81.94
2022-10-17T03:33:44.577Z,82.03
2022-10-17T03:36:19.906Z,82.17
2022-10-17T03:38:55.675Z,82.33
2022-10-17T03:41:28.903Z,82.39
2022-10-17T03:44:01.888Z,82.42
2022-10-17T03:46:34.961Z,82.55
2022-10-17T03:49:10.965Z,82.67
2022-10-17T03:51:45.590Z,82.78
2022-10-17T03:54:20.073Z,82.90
2022-10-17T03:56:53.656Z,83.01
2022-10-17T03:59:27.489Z,83.08
2022-10-17T04:02:02.007Z,83.15
2022-10-17T04:04:35.669Z,83.24
2022-10-17T04:07:08.811Z,83.38
2022-10-17T04:09:44.241Z,83.47
2022-10-17T04:12:19.338Z,83.57
2022-10-17T04:14:52.377Z,83.65
2022-10-17T04:17:25.798Z,83.65
2022-10-17T04:19:59.900Z,83.62
2022-10-17T04:22:32.385Z,83.65
2022-10-17T04:25:06.941Z,83.64
2022-10-17T04:27:41.421Z,83.61
2022-10-17T04:30:16.360Z,83.61
2022-10-17T04:32:49.667Z,83.68
2022-10-17T04:35:25.430Z,83.67
2022-10-17T04:38:00.218Z,83.62
2022-10-17T04:40:33.389Z,83.54
2022-10-17T04:43:06.354Z,83.51
2022-10-17T04:45:40.933Z,83.46
2022-10-17T04:48:13.955Z,83.41
2022-10-17T04:51:11.323Z,83.47
2022-10-17T04:53:46.681Z,83.60
2022-10-17T04:56:23.418Z,83.72
2022-10-17T04:58:57.805Z,83.74
2022-10-17T05:01:30.938Z,83.55
2022-10-17T05:04:04.355Z,83.44
2022-10-17T05:06:39.949Z,83.20
2022-10-17T05:09:24.514Z,83.08
2022-10-17T05:11:57.758Z,83.05
2022-10-17T05:14:31.254Z,82.91
2022-10-17T05:17:05.360Z,82.56
2022-10-17T05:19:38.184Z,82.26
2022-10-17T05:22:13.235Z,82.17
2022-10-17T05:24:47.383Z,82.11
2022-10-17T05:27:20.609Z,81.79
2022-10-17T05:29:54.540Z,81.37
2022-10-17T05:32:29.401Z,81.21
2022-10-17T05:35:05.031Z,81.16
2022-10-17T05:37:38.616Z,80.76
2022-10-17T05:40:12.895Z,80.36
2022-10-17T05:42:49.918Z,80.14
2022-10-17T05:45:23.876Z,79.85
2022-10-17T05:47:56.973Z,79.68
2022-10-17T05:50:31.075Z,79.54
2022-10-17T05:53:05.589Z,79.45
2022-10-17T05:55:40.454Z,79.51
2022-10-17T05:58:21.969Z,79.41
2022-10-17T06:00:51.291Z,79.44
2022-10-17T06:03:24.055Z,79.45
2022-10-17T06:05:56.946Z,79.37
2022-10-17T06:08:29.810Z,79.16
2022-10-17T06:11:06.137Z,79.02
2022-10-17T06:13:40.050Z,79.11
2022-10-17T06:16:14.629Z,79.04
2022-10-17T06:21:27.990Z,78.77
2022-10-17T06:24:11.573Z,78.70
2022-10-17T06:26:48.008Z,78.62
2022-10-17T06:29:22.842Z,78.36
2022-10-17T06:31:58.988Z,78.23
2022-10-17T06:34:32.629Z,77.81
2022-10-17T06:37:05.887Z,77.65
2022-10-17T06:39:40.683Z,77.59
2022-10-17T06:42:16.441Z,77.42
2022-10-17T06:44:54.424Z,76.96
2022-10-17T06:47:45.334Z,76.70
2022-10-17T06:50:38.891Z,76.16
2022-10-17T06:53:25.564Z,75.71
2022-10-17T06:56:19.656Z,75.51
2022-10-17T06:58:53.247Z,74.93
2022-10-17T07:01:28.981Z,74.47
2022-10-17T07:04:04.320Z,74.32
2022-10-17T07:06:39.966Z,74.11
2022-10-17T07:09:17.435Z,73.82
2022-10-17T07:11:50.443Z,73.71
2022-10-17T07:14:23.781Z,73.03
2022-10-17T07:16:58.907Z,72.98
2022-10-17T07:19:34.498Z,73.13
2022-10-17T07:22:07.890Z,72.59
2022-10-17T07:24:42.503Z,72.41
2022-10-17T07:27:19.763Z,71.85
2022-10-17T07:29:52.957Z,71.48
2022-10-17T07:32:40.292Z,71.36
2022-10-17T07:35:15.219Z,70.72
2022-10-17T07:37:48.391Z,69.79
2022-10-17T07:40:22.998Z,69.04
2022-10-17T07:42:58.351Z,67.92
2022-10-17T07:45:33.123Z,67.77
2022-10-17T07:48:06.997Z,67.60
2022-10-17T07:50:41.016Z,67.35
2022-10-17T07:53:14.099Z,66.73
2022-10-17T07:55:48.421Z,66.31
2022-10-17T07:58:21.818Z,66.43
2022-10-17T08:00:54.876Z,66.10
2022-10-17T08:03:27.654Z,66.14
2022-10-17T08:06:02.271Z,66.16
2022-10-17T08:10:11.530Z,66.26
2022-10-17T08:12:44.515Z,66.64
2022-10-17T08:15:17.684Z,66.80
2022-10-17T08:17:50.592Z,66.73
2022-10-17T08:20:23.948Z,66.57
2022-10-17T08:22:57.777Z,66.56
2022-10-17T08:25:30.467Z,66.61
2022-10-17T08:28:04.149Z,66.94
2022-10-17T08:30:37.036Z,66.98
2022-10-17T08:33:10.473Z,67.18
2022-10-17T08:35:43.525Z,67.29
2022-10-17T08:38:20.077Z,67.35
2022-10-17T08:40:52.228Z,67.51
2022-10-17T08:43:45.125Z,67.56
2022-10-17T08:46:18.586Z,67.43
2022-10-17T08:48:52.765Z,67.13
2022-10-17T08:51:27.989Z,66.89
2022-10-17T08:54:16.460Z,66.51
2022-10-17T08:56:52.569Z,66.12
2022-10-17T08:59:31.263Z,65.99
2022-10-17T09:02:33.595Z,65.16
2022-10-17T09:05:26.809Z,65.00
2022-10-17T09:08:26.989Z,64.69
2022-10-17T09:11:07.261Z,64.39
2022-10-17T09:14:09.586Z,64.41
2022-10-17T09:16:58.748Z,64.40
2022-10-17T09:19:44.196Z,63.97
2022-10-17T09:22:21.646Z,63.87
2022-10-17T09:25:04.029Z,63.86
2022-10-17T09:27:48.117Z,62.84
2022-10-17T09:30:45.177Z,62.24
2022-10-17T09:33:53.230Z,62.19
2022-10-17T09:36:09.496Z,61.97
2022-10-17T09:38:46.399Z,61.81
2022-10-17T09:44:05.328Z,60.81
2022-10-17T09:46:41.844Z,60.76
2022-10-17T09:49:25.358Z,60.81
2022-10-17T09:51:58.089Z,60.66
2022-10-17T09:54:43.498Z,60.31
2022-10-17T09:57:18.618Z,59.81
2022-10-17T10:00:05.033Z,59.03
2022-10-17T10:02:41.090Z,58.71
2022-10-17T10:05:21.984Z,58.73
2022-10-17T10:08:14.003Z,58.52
2022-10-17T10:10:47.689Z,58.07
2022-10-17T10:13:21.387Z,57.05
2022-10-17T10:15:54.887Z,57.08
2022-10-17T10:18:35.119Z,57.00
2022-10-17T10:21:22.850Z,57.13
2022-10-17T10:24:09.073Z,56.47
2022-10-17T10:26:51.205Z,56.12
2022-10-17T10:29:30.545Z,56.01
2022-10-17T10:32:36.242Z,56.11
2022-10-17T10:35:27.968Z,56.29
2022-10-17T10:38:05.390Z,55.51
2022-10-17T10:40:50.061Z,55.32
2022-10-17T10:43:39.060Z,55.41
2022-10-17T10:46:27.519Z,55.85
2022-10-17T10:49:03.606Z,55.41
2022-10-17T10:51:45.576Z,55.07
2022-10-17T10:54:31.225Z,54.75
2022-10-17T10:57:07.552Z,55.00
2022-10-17T10:59:58.631Z,55.37
2022-10-17T11:02:44.918Z,55.36
2022-10-17T11:05:57.676Z,54.67
2022-10-17T11:08:41.812Z,54.60
2022-10-17T11:11:34.057Z,54.57
2022-10-17T11:14:32.330Z,54.48
2022-10-17T11:17:29.724Z,54.22
2022-10-17T11:20:34.966Z,54.29
2022-10-17T11:23:21.892Z,54.21
2022-10-17T11:25:58.553Z,54.05
2022-10-17T11:28:32.395Z,54.22
2022-10-17T11:31:12.905Z,53.97
2022-10-17T11:33:53.555Z,53.91
2022-10-17T11:36:39.085Z,53.48
2022-10-17T11:39:39.304Z,53.39
2022-10-17T11:42:17.066Z,53.62
2022-10-17T11:44:52.165Z,53.66
2022-10-17T11:47:45.273Z,53.74
2022-10-17T11:53:22.823Z,53.69
2022-10-17T11:55:56.670Z,53.47
2022-10-17T11:58:52.378Z,53.25
2022-10-17T12:01:42.128Z,53.48
2022-10-17T12:04:51.667Z,53.56
2022-10-17T12:07:53.481Z,53.44
2022-10-17T12:10:40.202Z,53.46
2022-10-17T12:13:32.787Z,53.39
2022-10-17T12:16:28.483Z,53.54
2022-10-17T12:19:10.137Z,53.46
2022-10-17T12:22:06.155Z,53.47
2022-10-17T12:24:44.715Z,53.35
2022-10-17T12:27:47.660Z,53.28
2022-10-17T12:30:26.704Z,53.12
2022-10-17T12:33:35.535Z,53.28
2022-10-17T12:36:33.000Z,53.50
2022-10-17T12:39:12.180Z,53.32
2022-10-17T12:41:51.607Z,53.43
2022-10-17T12:44:31.008Z,53.11
2022-10-17T12:47:29.960Z,53.10
2022-10-17T12:50:03.813Z,53.08
2022-10-17T12:52:41.750Z,53.11
2022-10-17T12:55:21.290Z,53.40
2022-10-17T12:58:10.418Z,53.52
2022-10-17T13:01:22.711Z,53.79
2022-10-17T13:03:34.294Z,54.04
2022-10-17T13:06:08.941Z,54.14
2022-10-17T13:08:53.542Z,54.32
2022-10-17T13:11:30.641Z,54.19
2022-10-17T13:14:08.004Z,54.07
2022-10-17T13:16:44.758Z,54.07
2022-10-17T13:19:23.013Z,54.21
2022-10-17T13:22:07.189Z,54.21
2022-10-17T13:24:42.277Z,54.22
2022-10-17T13:27:32.527Z,54.36
2022-10-17T13:30:22.925Z,54.42
2022-10-17T13:32:58.121Z,54.53
2022-10-17T13:35:59.440Z,54.71
2022-10-17T13:38:16.091Z,54.88
2022-10-17T13:40:50.887Z,55.09
2022-10-17T13:43:25.514Z,55.13
2022-10-17T13:46:19.101Z,55.31
2022-10-17T13:48:40.450Z,55.51
2022-10-17T13:51:14.903Z,55.70
2022-10-17T13:53:47.818Z,56.02
2022-10-17T13:56:29.639Z,56.33
2022-10-17T13:59:06.753Z,56.10
2022-10-17T14:01:40.759Z,56.31
2022-10-17T14:04:19.795Z,56.55
2022-10-17T14:06:52.279Z,56.98
2022-10-17T14:09:28.582Z,57.41
2022-10-17T14:12:05.786Z,57.89
2022-10-17T14:15:05.086Z,58.26
2022-10-17T14:17:18.913Z,58.77
2022-10-17T14:22:40.695Z,59.48
2022-10-17T14:25:35.960Z,59.81
2022-10-17T14:28:18.775Z,60.04
2022-10-17T14:30:57.564Z,60.36
2022-10-17T14:33:34.623Z,60.75
2022-10-17T14:36:09.206Z,61.06
2022-10-17T14:38:48.517Z,61.75
2022-10-17T14:41:42.427Z,62.50
2022-10-17T14:44:07.165Z,63.36
2022-10-17T14:46:46.253Z,64.29
2022-10-17T14:49:25.171Z,64.52
2022-10-17T14:52:19.035Z,64.90
2022-10-17T14:54:52.961Z,65.36
2022-10-17T14:57:45.099Z,65.76
2022-10-17T15:00:20.496Z,66.24
2022-10-17T15:02:55.180Z,66.60
2022-10-17T15:05:28.336Z,67.05
2022-10-17T15:08:01.902Z,67.88
2022-10-17T15:10:39.781Z,68.22
2022-10-17T15:13:27.598Z,69.19
2022-10-17T15:15:50.755Z,69.85
2022-10-17T15:18:23.682Z,70.69
2022-10-17T15:21:04.985Z,70.90
2022-10-17T15:23:31.780Z,71.27
2022-10-17T15:26:05.129Z,71.85
2022-10-17T15:28:38.312Z,72.38
2022-10-17T15:31:17.645Z,72.49
2022-10-17T15:33:51.920Z,72.98
2022-10-17T15:36:30.833Z,73.10
2022-10-17T15:39:04.592Z,73.51
2022-10-17T15:41:38.557Z,73.86
2022-10-17T15:44:12.805Z,74.24
2022-10-17T15:46:46.806Z,74.53
2022-10-17T15:49:21.773Z,74.73
2022-10-17T15:51:55.582Z,74.92
2022-10-17T15:54:29.660Z,75.13
2022-10-17T15:57:03.031Z,75.13
2022-10-17T15:59:37.084Z,75.53
2022-10-17T16:02:21.006Z,75.60
2022-10-17T16:04:54.950Z,75.79
2022-10-17T16:07:28.716Z,76.10
2022-10-17T16:10:03.214Z,76.15
2022-10-17T16:12:38.374Z,76.24
2022-10-17T16:15:18.820Z,76.13
2022-10-17T16:17:53.878Z,76.17
2022-10-17T16:20:28.144Z,76.17
2022-10-17T16:23:03.593Z,76.25
2022-10-17T16:25:41.165Z,76.51
2022-10-17T16:28:14.222Z,76.69
2022-10-17T16:30:49.593Z,76.66
2022-10-17T16:33:24.290Z,76.82
2022-10-17T16:35:57.619Z,77.06
2022-10-17T16:38:31.397Z,77.15
2022-10-17T16:41:06.616Z,77.10
2022-10-17T16:43:41.054Z,77.27
2022-10-17T16:46:14.749Z,77.37
2022-10-17T16:48:48.692Z,77.51
2022-10-17T16:51:22.809Z,77.67
2022-10-17T16:53:57.595Z,77.95
2022-10-17T16:56:34.381Z,78.27
2022-10-17T16:59:09.174Z,78.52
2022-10-17T17:01:43.666Z,78.57
2022-10-17T17:04:19.451Z,78.62
2022-10-17T17:06:56.472Z,78.87
2022-10-17T17:09:35.681Z,79.08
2022-10-17T17:12:09.593Z,79.36
2022-10-17T17:14:45.948Z,79.51
2022-10-17T17:17:37.208Z,79.66
2022-10-17T17:19:56.572Z,79.82
2022-10-17T17:22:32.018Z,79.94
2022-10-17T17:25:05.664Z,80.02
2022-10-17T17:27:39.149Z,80.15
2022-10-17T17:30:13.143Z,80.38
2022-10-17T17:32:47.609Z,80.53
2022-10-17T17:35:21.436Z,80.70
2022-10-17T17:37:54.562Z,80.69
2022-10-17T17:40:29.287Z,81.03
2022-10-17T17:43:02.909Z,81.03
2022-10-17T17:45:37.198Z,81.17
2022-10-17T17:48:10.544Z,81.28
2022-10-17T17:50:44.551Z,81.33
2022-10-17T17:53:20.854Z,81.37
2022-10-17T17:56:15.876Z,81.48
2022-10-17T17:58:55.438Z,81.36
2022-10-17T18:01:36.081Z,81.43
2022-10-17T18:04:10.653Z,81.37
2022-10-17T18:06:43.806Z,81.37
2022-10-17T18:09:16.792Z,81.08
2022-10-17T18:11:50.420Z,81.16
2022-10-17T18:14:24.216Z,81.21
2022-10-17T18:16:57.188Z,81.26
2022-10-17T18:19:33.190Z,81.24
2022-10-17T18:22:06.889Z,81.48
2022-10-17T18:24:40.131Z,81.66
2022-10-17T18:27:14.627Z,81.78
2022-10-17T18:29:47.846Z,81.83
2022-10-17T18:32:21.273Z,81.91
2022-10-17T18:34:54.216Z,82.08
2022-10-17T18:37:26.929Z,82.17
2022-10-17T18:39:59.928Z,82.43
2022-10-17T18:42:33.333Z,82.58
2022-10-17T18:45:08.906Z,82.81
2022-10-17T18:47:47.623Z,82.94
2022-10-17T18:50:22.359Z,83.18
2022-10-17T18:52:56.116Z,83.41
2022-10-17T18:55:29.131Z,83.56
2022-10-17T18:58:03.063Z,83.73
2022-10-17T19:00:35.948Z,83.67
2022-10-17T19:03:08.986Z,83.68
2022-10-17T19:05:44.457Z,83.73
2022-10-17T19:08:17.850Z,83.65
2022-10-17T19:10:50.711Z,83.77
2022-10-17T19:13:23.802Z,83.89
2022-10-17T19:15:57.290Z,84.02
2022-10-17T19:18:30.278Z,83.98
2022-10-17T19:21:09.611Z,83.87
2022-10-17T19:23:42.343Z,83.96
2022-10-17T19:26:15.721Z,83.89
2022-10-17T19:28:51.573Z,83.97
2022-10-17T19:31:27.437Z,83.90
2022-10-17T19:34:00.769Z,84.07
2022-10-17T19:36:36.106Z,84.16
2022-10-17T19:39:13.200Z,84.39
2022-10-17T19:41:48.962Z,84.50
2022-10-17T19:44:22.228Z,84.56
2022-10-17T19:46:55.214Z,84.65
2022-10-17T19:49:28.101Z,84.71
2022-10-17T19:52:01.384Z,84.77
2022-10-17T19:54:34.554Z,84.84
2022-10-17T19:57:10.453Z,84.81
2022-10-17T19:59:43.113Z,84.75
2022-10-17T20:02:15.894Z,84.66
2022-10-17T20:04:54.730Z,84.71
2022-10-17T20:07:23.741Z,84.77
2022-10-17T20:09:56.625Z,84.67
2022-10-17T20:12:29.694Z,84.75
2022-10-17T20:15:02.766Z,84.87
2022-10-17T20:17:36.282Z,84.84
2022-10-17T20:20:10.847Z,84.76
2022-10-17T20:22:44.208Z,84.74
2022-10-17T20:25:17.544Z,84.76
2022-10-17T20:27:51.662Z,84.69
2022-10-17T20:30:24.573Z,84.59
2022-10-17T20:32:58.090Z,84.66
2022-10-17T20:35:31.265Z,84.65
2022-10-17T20:38:03.953Z,84.72
2022-10-17T20:40:36.871Z,84.75
2022-10-17T20:43:12.227Z,84.67
2022-10-17T20:45:51.387Z,84.86
2022-10-17T20:48:20.813Z,84.95
2022-10-17T20:50:54.083Z,84.99
2022-10-17T20:53:42.039Z,85.13
2022-10-17T20:56:15.080Z,85.21
2022-10-17T20:58:51.166Z,85.24
2022-10-17T21:01:24.629Z,85.27
2022-10-17T21:04:06.179Z,85.37
2022-10-17T21:06:32.915Z,85.43
2022-10-17T21:09:07.596Z,85.36
2022-10-17T21:11:40.756Z,85.09
2022-10-17T21:14:16.272Z,85.06
2022-10-17T21:16:49.801Z,85.00
2022-10-17T21:19:24.139Z,85.08
2022-10-17T21:21:57.416Z,85.15
2022-10-17T21:24:30.480Z,85.27
2022-10-17T21:27:03.367Z,85.33
2022-10-17T21:29:36.403Z,85.13
2022-10-17T21:32:19.472Z,85.03
2022-10-17T21:34:44.785Z,85.09
2022-10-17T21:37:18.289Z,85.14
2022-10-17T21:39:51.638Z,85.15
2022-10-17T21:42:24.349Z,85.05
2022-10-17T21:44:57.223Z,85.00
2022-10-17T21:47:30.108Z,84.96
2022-10-17T21:50:02.791Z,85.11
2022-10-17T21:52:35.659Z,85.21
2022-10-17T21:55:09.481Z,85.33
2022-10-17T21:57:42.397Z,85.39
2022-10-17T22:00:16.731Z,85.51
2022-10-17T22:02:49.467Z,85.74
2022-10-17T22:05:22.527Z,85.82
2022-10-17T22:07:56.232Z,85.84
2022-10-17T22:10:29.032Z,85.97
2022-10-17T22:13:02.778Z,86.05
2022-10-17T22:15:36.518Z,86.02
2022-10-17T22:18:10.744Z,86.08
2022-10-17T22:20:43.589Z,86.28
2022-10-17T22:23:16.788Z,86.23
2022-10-17T22:25:57.326Z,86.12
2022-10-17T22:28:30.908Z,86.23
2022-10-17T22:31:04.488Z,86.18
2022-10-17T22:33:40.090Z,86.12
2022-10-17T22:36:13.903Z,86.07
2022-10-17T22:38:47.338Z,86.22
2022-10-17T22:41:20.075Z,86.34
2022-10-17T22:43:53.229Z,86.34
2022-10-17T22:46:26.293Z,86.25
2022-10-17T22:48:59.263Z,86.20
2022-10-17T22:51:32.124Z,86.10
2022-10-17T22:54:05.000Z,86.20
2022-10-17T22:56:39.019Z,86.13
2022-10-17T22:59:11.971Z,86.08
2022-10-17T23:01:45.633Z,85.92
2022-10-17T23:04:18.375Z,85.93
2022-10-17T23:06:51.151Z,86.06
2022-10-17T23:09:24.137Z,86.09
2022-10-17T23:11:58.480Z,86.09
2022-10-17T23:14:32.185Z,86.05
2022-10-17T23:17:06.571Z,86.10
2022-10-17T23:19:40.985Z,86.21
2022-10-17T23:22:13.761Z,86.28
2022-10-17T23:24:47.456Z,86.18
2022-10-17T23:27:20.177Z,86.08
2022-10-17T23:29:53.358Z,86.14
2022-10-17T23:32:26.192Z,86.31
2022-10-17T23:34:58.998Z,86.58
2022-10-17T23:37:31.899Z,86.82
2022-10-17T23:40:06.880Z,87.02
2022-10-17T23:42:39.715Z,86.98
2022-10-17T23:45:13.098Z,87.06
2022-10-17T23:47:46.481Z,86.90
2022-10-17T23:50:19.551Z,87.14
2022-10-17T23:52:52.901Z,87.23
2022-10-17T23:55:25.617Z,87.27
2022-10-17T23:57:58.884Z,87.35
